Time;durP1;ratioP1;P1;durP2;ratioP2;P2;SDS_P1;SDS_P2;PMS_P1;PMS_P2;Temp;Humidity;BMP_temperature;BMP_pressure;BME280_temperature;BME280_humidity;BME280_pressure;Samples;Min_cycle;Max_cycle;Signal;HPM_P1;HPM_P2
2022/10/15 00:01:11;;;;;;;9.50;3.80;;;;;;;4.33;100.00;100913.52;1772218;79;21071;-74
2022/10/15 00:03:41;;;;;;;6.10;3.47;;;;;;;4.28;100.00;100911.16;1772899;79;21044;-74
2022/10/15 00:06:13;;;;;;;9.73;3.90;;;;;;;4.24;100.00;100910.17;1772453;81;21957;-74
2022/10/15 00:08:40;;;;;;;8.25;3.95;;;;;;;4.15;100.00;100901.81;1772643;81;21064;-73
2022/10/15 00:11:12;;;;;;;11.03;4.20;;;;;;;4.15;100.00;100901.81;1773828;81;21087;-74
2022/10/15 00:13:40;;;;;;;9.73;4.25;;;;;;;4.16;100.00;100899.98;1754849;82;21038;-74
2022/10/15 00:16:10;;;;;;;8.37;4.23;;;;;;;4.12;100.00;100900.69;1753747;81;21081;-74
2022/10/15 00:18:39;;;;;;;12.57;4.17;;;;;;;4.09;100.00;100898.70;1753034;82;20994;-74
2022/10/15 00:21:08;;;;;;;9.20;4.07;;;;;;;4.04;100.00;100899.51;1753007;82;21090;-74
2022/10/15 00:23:35;;;;;;;6.47;4.00;;;;;;;4.01;100.00;100893.91;1753230;82;21460;-74
2022/10/15 00:26:07;;;;;;;8.60;4.27;;;;;;;3.98;100.00;100892.77;1753250;82;20991;-74
2022/10/15 00:28:33;;;;;;;10.40;4.37;;;;;;;3.93;100.00;100893.12;1753306;82;20986;-73
2022/10/15 00:31:06;;;;;;;8.60;4.17;;;;;;;3.89;100.00;100890.26;1754457;82;21009;-74
2022/10/15 00:33:34;;;;;;;6.60;4.03;;;;;;;3.86;100.00;100892.30;1755260;81;21018;-73
2022/10/15 00:36:12;;;;;;;11.67;4.67;;;;;;;3.81;100.00;100889.95;1711419;84;20984;-74
2022/10/15 00:38:40;;;;;;;7.03;3.70;;;;;;;3.77;100.00;100894.67;1711062;84;21079;-74
2022/10/15 00:41:14;;;;;;;11.93;4.73;;;;;;;3.74;100.00;100891.34;1711264;84;21518;-73
2022/10/15 00:43:45;;;;;;;10.70;4.30;;;;;;;3.71;100.00;100892.40;1711118;84;21055;-74
2022/10/15 00:46:37;;;;;;;8.83;4.33;;;;;;;3.70;100.00;100889.37;1687672;84;21577;-73
2022/10/15 00:49:29;;;;;;;9.50;4.30;;;;;;;3.71;100.00;100886.20;1711134;84;21479;-73
2022/10/15 00:52:04;;;;;;;12.83;4.47;;;;;;;3.70;100.00;100892.05;1711481;84;21021;-73
2022/10/15 00:54:34;;;;;;;10.23;4.60;;;;;;;3.66;100.00;100886.51;1695253;84;21086;-73
2022/10/15 00:57:00;;;;;;;11.83;4.57;;;;;;;3.64;100.00;100890.27;1603165;89;21082;-73
2022/10/15 00:59:27;;;;;;;11.70;4.37;;;;;;;3.61;100.00;100886.84;1593566;90;21035;-74
2022/10/15 01:01:55;;;;;;;10.57;3.90;;;;;;;3.58;100.00;100873.67;1593265;90;21087;-74
2022/10/15 01:04:22;;;;;;;8.87;4.30;;;;;;;3.55;100.00;100878.38;1593569;90;21119;-74
2022/10/15 01:06:49;;;;;;;8.40;4.20;;;;;;;3.52;100.00;100880.77;1567880;90;21115;-74
2022/10/15 01:09:15;;;;;;;10.33;4.57;;;;;;;3.49;100.00;100876.11;1585352;89;21604;-74
2022/10/15 01:11:47;;;;;;;9.20;4.30;;;;;;;3.46;100.00;100881.69;1610611;89;21532;-74
2022/10/15 01:14:37;;;;;;;9.73;4.57;;;;;;;3.43;100.00;100880.06;1594820;89;21114;-73
2022/10/15 01:17:19;;;;;;;8.40;4.47;;;;;;;3.41;100.00;100884.17;1592303;90;21116;-74
2022/10/15 01:20:35;;;;;;;10.38;4.58;;;;;;;3.38;100.00;100881.73;1590367;90;21074;-74
2022/10/15 01:23:50;;;;;;;11.00;5.27;;;;;;;3.37;100.00;100880.50;1561062;92;21097;-73
2022/10/15 01:26:46;;;;;;;10.72;5.03;;;;;;;3.34;100.00;100879.36;1533826;94;21576;-74
2022/10/15 01:29:37;;;;;;;14.43;5.37;;;;;;;3.31;100.00;100887.58;1592673;90;21074;-74
2022/10/15 01:32:24;;;;;;;12.60;5.53;;;;;;;3.29;100.00;100883.66;1589932;90;21110;-74
2022/10/15 01:35:10;;;;;;;9.20;4.70;;;;;;;3.26;100.00;100882.56;1589664;90;21114;-73
2022/10/15 01:38:06;;;;;;;8.63;4.40;;;;;;;3.26;100.00;100883.02;1584860;91;21070;-75
2022/10/15 01:40:39;;;;;;;11.50;4.50;;;;;;;3.22;100.00;100884.58;1590750;90;21520;-74
2022/10/15 01:43:15;;;;;;;8.73;3.90;;;;;;;3.21;100.00;100880.67;1590726;90;21575;-73
2022/10/15 01:46:02;;;;;;;8.07;4.07;;;;;;;3.19;100.00;100878.10;1495568;96;21083;-74
2022/10/15 01:48:43;;;;;;;10.20;4.43;;;;;;;3.16;100.00;100880.97;1432414;100;21134;-73
2022/10/15 01:51:11;;;;;;;10.50;4.90;;;;;;;3.14;100.00;100875.36;1432592;100;21101;-74
2022/10/15 01:53:38;;;;;;;10.50;4.27;;;;;;;3.16;100.00;100876.11;1450745;97;21139;-74
2022/10/15 01:56:09;;;;;;;8.17;4.40;;;;;;;3.22;100.00;100873.02;1495734;96;21076;-75
2022/10/15 01:58:42;;;;;;;7.67;4.53;;;;;;;3.29;100.00;100874.31;1494417;96;21139;-74
2022/10/15 02:01:09;;;;;;;8.13;4.12;;;;;;;3.35;100.00;100879.26;1494665;96;21156;-74
2022/10/15 02:03:49;;;;;;;6.93;3.90;;;;;;;3.40;100.00;100871.78;1494509;96;21068;-75
2022/10/15 02:06:24;;;;;;;8.07;4.10;;;;;;;3.45;100.00;100874.13;1494360;96;21082;-74
2022/10/15 02:09:24;;;;;;;7.53;3.90;;;;;;;3.49;100.00;100880.12;1461350;98;21128;-74
2022/10/15 02:12:22;;;;;;;7.77;3.90;;;;;;;3.51;100.00;100880.90;1496400;95;21097;-74
2022/10/15 02:15:17;;;;;;;7.10;3.77;;;;;;;3.52;100.00;100880.77;1503967;95;21123;-74
2022/10/15 02:18:04;;;;;;;8.70;4.40;;;;;;;3.51;100.00;100880.41;1495532;95;21100;-75
2022/10/15 02:20:57;;;;;;;11.87;4.53;;;;;;;3.50;100.00;100878.68;1503427;95;21603;-74
2022/10/15 02:23:37;;;;;;;;;;;;;;;3.48;100.00;100887.30;1516265;95;21124;-74
2022/10/15 02:26:05;;;;;;;10.83;4.30;;;;;;;3.45;100.00;100891.99;1515347;93;20196;-73
2022/10/15 02:28:32;;;;;;;8.93;4.00;;;;;;;3.42;100.00;100885.05;1514100;95;21552;-73
2022/10/15 02:30:59;;;;;;;7.40;3.80;;;;;;;3.40;100.00;100888.31;1513966;95;21603;-74
2022/10/15 02:33:26;;;;;;;8.10;3.47;;;;;;;3.38;100.00;100887.53;1513981;95;21097;-74
2022/10/15 02:35:52;;;;;;;5.93;3.30;;;;;;;3.38;100.00;100887.08;1532866;93;21562;-73
2022/10/15 02:38:20;;;;;;;8.03;3.90;;;;;;;3.39;100.00;100893.27;1514033;95;21113;-74
2022/10/15 02:40:47;;;;;;;6.77;3.77;;;;;;;3.37;100.00;100890.70;1513873;95;21090;-74
2022/10/15 02:43:15;;;;;;;8.47;3.70;;;;;;;3.40;100.00;100886.98;1567985;89;21081;-74
2022/10/15 02:45:42;;;;;;;7.43;3.90;;;;;;;3.40;100.00;100892.33;1611414;89;21031;-74
2022/10/15 02:48:09;;;;;;;7.77;3.67;;;;;;;3.40;100.00;100899.02;1615475;87;21050;-74
2022/10/15 02:50:36;;;;;;;6.07;4.00;;;;;;;3.36;100.00;100902.83;1615164;89;21082;-74
2022/10/15 02:53:03;;;;;;;5.83;3.63;;;;;;;3.33;100.00;100899.02;1613745;89;21595;-74
2022/10/15 02:55:30;;;;;;;8.63;4.07;;;;;;;3.31;100.00;100902.28;1613035;89;21497;-74
2022/10/15 02:57:57;;;;;;;7.33;3.97;;;;;;;3.30;100.00;100901.43;1613236;89;21127;-74
2022/10/15 03:00:24;;;;;;;9.53;3.83;;;;;;;3.28;100.00;100901.17;1613746;89;21074;-73
2022/10/15 03:02:52;;;;;;;8.43;3.77;;;;;;;3.27;100.00;100900.78;1613340;89;21066;-75
2022/10/15 03:05:19;;;;;;;6.17;3.53;;;;;;;3.26;100.00;100909.75;1656697;83;20986;-73
2022/10/15 03:07:46;;;;;;;5.00;3.30;;;;;;;3.22;100.00;100901.08;1724226;83;21543;-74
2022/10/15 03:10:13;;;;;;;8.13;3.73;;;;;;;3.20;100.00;100907.86;1723925;81;21034;-73
2022/10/15 03:12:41;;;;;;;9.03;3.73;;;;;;;3.17;100.00;100901.41;1724130;83;21050;-74
2022/10/15 03:15:08;;;;;;;9.43;3.90;;;;;;;3.18;100.00;100908.94;1724312;83;21001;-74
2022/10/15 03:17:35;;;;;;;7.20;3.90;;;;;;;3.16;100.00;100913.53;1737398;81;21062;-74
2022/10/15 03:20:05;;;;;;;7.87;3.47;;;;;;;3.15;100.00;100907.80;1753646;82;21525;-74
2022/10/15 03:22:34;;;;;;;13.10;4.20;;;;;;;3.16;100.00;100906.84;1753467;80;21117;-75
2022/10/15 03:25:01;;;;;;;8.53;4.33;;;;;;;3.18;100.00;100900.91;1753750;82;20990;-74
2022/10/15 03:27:28;;;;;;;6.40;3.90;;;;;;;3.20;100.00;100903.00;1753789;82;21550;-74
2022/10/15 03:29:55;;;;;;;6.70;3.77;;;;;;;3.21;100.00;100902.05;1753676;82;21023;-74
2022/10/15 03:32:23;;;;;;;7.20;3.90;;;;;;;3.22;100.00;100906.42;1753845;82;21536;-74
2022/10/15 03:34:50;;;;;;;6.90;3.97;;;;;;;3.22;100.00;100902.41;1753914;82;21026;-74
2022/10/15 03:37:17;;;;;;;10.57;4.57;;;;;;;3.17;100.00;100903.20;1753504;80;21110;-74
2022/10/15 03:39:45;;;;;;;8.70;4.17;;;;;;;3.15;100.00;100900.66;1753718;82;21477;-74
2022/10/15 03:42:12;;;;;;;7.40;4.07;;;;;;;3.13;100.00;100905.22;1753724;82;21587;-75
2022/10/15 03:44:40;;;;;;;10.03;4.20;;;;;;;3.13;100.00;100903.03;1750142;82;20987;-74
2022/10/15 03:47:09;;;;;;;9.13;3.90;;;;;;;3.11;100.00;100907.14;1753498;82;21484;-74
2022/10/15 03:49:43;;;;;;;8.77;4.07;;;;;;;3.08;100.00;100902.02;1700685;84;21103;-74
2022/10/15 03:52:10;;;;;;;11.03;4.50;;;;;;;3.07;100.00;100902.97;1700770;84;21002;-74
2022/10/15 03:54:39;;;;;;;11.87;4.20;;;;;;;3.07;100.00;100902.97;1702332;84;21117;-74
2022/10/15 03:57:07;;;;;;;11.13;4.63;;;;;;;3.07;100.00;100907.47;1712618;84;21074;-74
2022/10/15 03:59:35;;;;;;;7.27;4.40;;;;;;;3.07;100.00;100902.13;1712787;84;21512;-74
2022/10/15 04:02:02;;;;;;;9.87;4.70;;;;;;;3.08;100.00;100906.03;1665320;86;21015;-73
2022/10/15 04:04:30;;;;;;;9.53;4.40;;;;;;;3.10;100.00;100905.45;1715506;84;21034;-74
2022/10/15 04:06:58;;;;;;;10.73;4.37;;;;;;;3.11;100.00;100908.97;1664182;86;21106;-74
2022/10/15 04:09:27;;;;;;;9.53;4.43;;;;;;;3.11;100.00;100904.95;1642521;86;21035;-73
2022/10/15 04:11:55;;;;;;;7.57;4.07;;;;;;;3.09;100.00;100906.39;1661229;84;21010;-75
2022/10/15 04:14:23;;;;;;;12.90;4.87;;;;;;;3.08;100.00;100905.16;1715491;84;21046;-75
2022/10/15 04:16:50;;;;;;;8.77;3.93;;;;;;;3.06;100.00;100905.73;1665913;84;21082;-74
2022/10/15 04:19:20;;;;;;;10.43;3.80;;;;;;;3.04;100.00;100912.03;1706343;84;21686;-74
2022/10/15 04:21:48;;;;;;;10.13;3.93;;;;;;;3.05;100.00;100916.92;1703081;84;21038;-74
2022/10/15 04:24:18;;;;;;;6.63;3.90;;;;;;;3.05;100.00;100910.23;1703078;84;21061;-75
2022/10/15 04:26:45;;;;;;;8.87;3.93;;;;;;;3.06;100.00;100920.44;1736421;83;21116;-74
2022/10/15 04:29:12;;;;;;;10.43;3.87;;;;;;;3.04;100.00;100917.86;1736759;83;21010;-74
2022/10/15 04:31:40;;;;;;;9.53;4.20;;;;;;;3.07;100.00;100923.02;1736754;83;21054;-73
2022/10/15 04:34:07;;;;;;;11.80;4.37;;;;;;;3.08;100.00;100923.41;1736582;83;21072;-73
2022/10/15 04:36:35;;;;;;;9.17;4.10;;;;;;;3.11;100.00;100927.19;1736356;83;21077;-75
2022/10/15 04:39:05;;;;;;;13.97;4.23;;;;;;;3.13;100.00;100923.92;1732934;83;21034;-74
2022/10/15 04:41:36;;;;;;;9.95;4.22;;;;;;;3.14;100.00;100921.64;1736454;83;21562;-74
2022/10/15 04:44:05;;;;;;;9.70;4.20;;;;;;;3.19;100.00;100921.35;1645177;87;20994;-74
2022/10/15 04:46:33;;;;;;;9.67;4.20;;;;;;;3.24;100.00;100925.91;1644058;86;21079;-73
2022/10/15 04:49:01;;;;;;;7.70;3.73;;;;;;;3.33;100.00;100928.42;1637803;87;21565;-73
2022/10/15 04:51:28;;;;;;;13.80;4.63;;;;;;;3.42;100.00;100931.35;1641236;87;21119;-74
2022/10/15 04:54:06;;;;;;;9.73;4.27;;;;;;;3.52;100.00;100926.71;1645539;87;21016;-74
2022/10/15 04:56:36;;;;;;;8.93;4.40;;;;;;;3.57;100.00;100939.30;1644200;87;21149;-74
2022/10/15 04:59:06;;;;;;;8.47;4.00;;;;;;;3.61;100.00;100943.47;1644171;87;21152;-74
2022/10/15 05:01:34;;;;;;;10.83;3.97;;;;;;;3.63;100.00;100945.59;1643968;87;21069;-74
2022/10/15 05:04:03;;;;;;;10.60;4.33;;;;;;;3.66;100.00;100946.69;1640886;87;21015;-73
2022/10/15 05:06:32;;;;;;;9.30;4.43;;;;;;;3.68;100.00;100944.77;1643848;87;21061;-74
2022/10/15 05:09:02;;;;;;;11.33;4.80;;;;;;;3.71;100.00;100951.25;1641003;87;21106;-74
2022/10/15 05:11:33;;;;;;;9.60;5.27;;;;;;;3.76;100.00;100952.28;1644183;87;21118;-74
2022/10/15 05:13:59;;;;;;;12.53;5.23;;;;;;;3.79;100.00;100951.59;1641659;87;21057;-74
2022/10/15 05:16:28;;;;;;;13.97;5.77;;;;;;;3.84;100.00;100960.62;1646369;87;21058;-73
2022/10/15 05:19:00;;;;;;;11.17;5.20;;;;;;;3.88;100.00;100964.83;1644407;87;21642;-73
2022/10/15 05:21:32;;;;;;;11.30;5.23;;;;;;;3.92;100.00;100961.45;1646202;87;21101;-73
2022/10/15 05:24:01;;;;;;;10.73;4.77;;;;;;;3.98;100.00;100963.69;1659964;84;21084;-73
2022/10/15 05:26:32;;;;;;;11.37;5.13;;;;;;;4.06;100.00;100967.20;1625769;88;21077;-74
2022/10/15 05:28:59;;;;;;;11.77;4.83;;;;;;;4.14;100.00;100966.16;1623467;88;21037;-74
2022/10/15 05:31:29;;;;;;;10.73;4.77;;;;;;;4.23;100.00;100961.50;1623091;88;21167;-74
2022/10/15 05:33:59;;;;;;;14.23;5.60;;;;;;;4.34;100.00;100968.31;1592910;90;21069;-72
2022/10/15 05:36:28;;;;;;;9.27;4.83;;;;;;;4.44;100.00;100970.33;1589805;90;21115;-73
2022/10/15 05:39:00;;;;;;;10.97;4.93;;;;;;;4.54;100.00;100962.02;1592891;90;21098;-71
2022/10/15 05:41:28;;;;;;;16.27;6.23;;;;;;;4.66;100.00;100962.98;1593127;90;21180;-73
2022/10/15 05:43:56;;;;;;;13.70;5.37;;;;;;;4.81;100.00;100967.70;1592975;89;21077;-70
2022/10/15 05:46:26;;;;;;;12.30;5.20;;;;;;;4.92;100.00;100971.78;1592632;90;21575;-73
2022/10/15 05:48:55;;;;;;;12.63;5.33;;;;;;;5.05;100.00;100965.06;1593123;90;21077;-73
2022/10/15 05:51:23;;;;;;;13.63;5.47;;;;;;;5.17;100.00;100976.23;1592544;90;21564;-72
2022/10/15 05:53:55;;;;;;;13.43;5.13;;;;;;;5.30;100.00;100983.72;1594679;89;20994;-70
2022/10/15 05:56:23;;;;;;;8.37;4.50;;;;;;;5.44;100.00;100977.82;1557864;91;21106;-72
2022/10/15 05:58:50;;;;;;;19.07;7.60;;;;;;;5.60;100.00;100986.91;1585776;89;21086;-72
2022/10/15 06:01:17;;;;;;;14.07;6.37;;;;;;;5.77;100.00;100981.59;1585479;90;21139;-71
2022/10/15 06:03:47;;;;;;;14.67;6.37;;;;;;;5.95;100.00;100982.00;1592996;89;21142;-71
2022/10/15 06:06:19;;;;;;;9.03;4.90;;;;;;;6.14;100.00;100987.70;1610054;89;21114;-72
2022/10/15 06:08:48;;;;;;;9.63;4.50;;;;;;;6.34;100.00;100994.22;1610096;89;21115;-70
2022/10/15 06:11:15;;;;;;;11.17;5.27;;;;;;;6.53;100.00;100989.56;1609818;89;21127;-72
2022/10/15 06:13:43;;;;;;;11.43;4.97;;;;;;;6.73;100.00;100999.22;1610199;89;21523;-73
2022/10/15 06:16:12;;;;;;;9.43;4.47;;;;;;;6.90;100.00;100993.84;1609840;88;21123;-72
2022/10/15 06:18:38;;;;;;;8.50;4.40;;;;;;;7.10;100.00;100994.44;1662464;83;21046;-72
2022/10/15 06:21:06;;;;;;;8.50;4.47;;;;;;;7.31;100.00;100997.20;1691634;83;21061;-72
2022/10/15 06:23:34;;;;;;;9.40;4.50;;;;;;;7.55;100.00;101007.75;1696529;84;21057;-71
2022/10/15 06:26:07;;;;;;;9.47;4.40;;;;;;;7.81;100.00;101012.80;1694889;85;21089;-72
2022/10/15 06:28:35;;;;;;;9.90;3.60;;;;;;;8.08;100.00;101015.48;1622641;88;21139;-72
2022/10/15 06:31:02;;;;;;;7.27;3.67;;;;;;;8.40;100.00;101014.55;1645602;85;21566;-72
2022/10/15 06:33:31;;;;;;;7.57;4.00;;;;;;;8.69;100.00;101020.98;1660470;86;21216;-73
2022/10/15 06:36:04;;;;;;;10.87;4.27;;;;;;;9.01;100.00;101029.41;1660124;85;21058;-73
2022/10/15 06:38:32;;;;;;;6.60;3.53;;;;;;;9.33;100.00;101029.72;1660241;86;21562;-71
2022/10/15 06:40:59;;;;;;;4.83;3.27;;;;;;;9.65;100.00;101037.58;1660752;86;21032;-73
2022/10/15 06:43:26;;;;;;;6.47;3.40;;;;;;;9.94;100.00;101043.98;1660598;86;21051;-72
2022/10/15 06:45:52;;;;;;;7.33;3.42;;;;;;;10.23;100.00;101043.95;1660507;86;21031;-71
2022/10/15 06:48:19;;;;;;;6.45;3.25;;;;;;;10.49;100.00;101050.14;1660343;86;21609;-71
2022/10/15 06:50:46;;;;;;;6.08;3.40;;;;;;;10.71;100.00;101055.69;1660364;86;20992;-72
2022/10/15 06:53:13;;;;;;;7.22;3.00;;;;;;;10.95;100.00;101060.09;1660613;85;21036;-71
2022/10/15 06:55:39;;;;;;;3.65;2.83;;;;;;;11.19;100.00;101054.16;1675600;85;21171;-71
2022/10/15 06:58:06;;;;;;;26.55;12.65;;;;;;;11.43;100.00;101068.13;1644877;85;21095;-71
2022/10/15 07:00:34;;;;;;;11.12;4.70;;;;;;;11.62;100.00;101070.72;1649585;86;21035;-70
2022/10/15 07:03:05;;;;;;;5.62;3.42;;;;;;;11.77;100.00;101073.74;1649944;86;21568;-72
2022/10/15 07:05:33;;;;;;;4.75;3.15;;;;;;;11.89;100.00;101079.28;1646601;86;21544;-71
2022/10/15 07:08:01;;;;;;;4.10;3.00;;;;;;;12.04;100.00;101078.77;1649409;86;21540;-72
2022/10/15 07:10:30;;;;;;;9.00;3.75;;;;;;;12.20;100.00;101080.78;1649324;86;21015;-72
2022/10/15 07:13:01;;;;;;;7.37;3.65;;;;;;;12.33;100.00;101081.24;1640083;86;21067;-72
2022/10/15 07:15:28;;;;;;;7.62;3.55;;;;;;;12.42;100.00;101087.59;1653087;86;21112;-72
2022/10/15 07:18:00;;;;;;;6.15;3.65;;;;;;;12.45;100.00;101092.19;1641556;87;21627;-72
2022/10/15 07:20:28;;;;;;;9.28;3.80;;;;;;;12.49;100.00;101090.86;1593549;89;21769;-71
2022/10/15 07:23:00;;;;;;;7.65;3.75;;;;;;;12.58;100.00;101082.79;1646078;86;21580;-72
2022/10/15 07:25:28;;;;;;;4.35;3.25;;;;;;;12.72;100.00;101089.83;1698739;82;21062;-72
2022/10/15 07:27:57;;;;;;;6.97;3.80;;;;;;;12.88;100.00;101090.44;1749207;82;21069;-71
2022/10/15 07:32:58;;;;;;;9.83;4.00;;;;;;;13.19;100.00;101097.22;1680862;85;21487;-70
2022/10/15 07:35:26;;;;;;;8.15;3.25;;;;;;;13.34;100.00;101091.55;1681290;85;21172;-70
2022/10/15 07:37:52;;;;;;;9.33;3.25;;;;;;;13.42;100.00;101087.52;1681139;85;21018;-71
2022/10/15 07:40:19;;;;;;;5.25;3.20;;;;;;;13.52;100.00;101088.73;1680987;85;21090;-71
2022/10/15 07:42:56;;;;;;;4.87;2.72;;;;;;;13.67;100.00;101093.04;1681252;85;21239;-72
2022/10/15 07:45:26;;;;;;;3.35;2.45;;;;;;;13.84;100.00;101085.23;1680964;85;21552;-72
2022/10/15 07:47:53;;;;;;;5.67;3.00;;;;;;;14.02;100.00;101082.89;1690898;84;21105;-73
2022/10/15 07:50:20;;;;;;;6.67;3.00;;;;;;;14.19;100.00;101087.84;1646482;86;21042;-73
2022/10/15 07:52:47;;;;;;;6.42;2.90;;;;;;;14.28;100.00;101089.55;1644845;86;21102;-73
2022/10/15 07:55:14;;;;;;;2.95;2.45;;;;;;;14.33;100.00;101085.80;1691183;85;21038;-72
2022/10/15 07:57:40;;;;;;;4.30;2.47;;;;;;;14.41;100.00;101083.09;1649851;86;21069;-72
2022/10/15 08:00:09;;;;;;;3.92;2.55;;;;;;;14.55;100.00;101086.97;1645850;86;21010;-72
2022/10/15 08:02:39;;;;;;;3.52;2.50;;;;;;;14.65;100.00;101079.19;1647607;86;21021;-71
2022/10/15 08:05:06;;;;;;;4.33;2.85;;;;;;;14.76;100.00;101082.38;1691785;84;21058;-73
2022/10/15 08:07:33;;;;;;;6.05;2.85;;;;;;;14.83;100.00;101081.70;1648010;86;21149;-72
2022/10/15 08:10:01;;;;;;;9.20;3.25;;;;;;;14.92;100.00;101080.13;1636499;86;21046;-73
2022/10/15 08:12:29;;;;;;;3.62;2.42;;;;;;;15.01;100.00;101080.96;1645479;86;21077;-71
2022/10/15 08:14:55;;;;;;;8.33;4.03;;;;;;;15.15;100.00;101076.66;1691552;84;21118;-71
2022/10/15 08:17:24;;;;;;;11.75;5.33;;;;;;;15.16;100.00;101083.83;1645738;86;21500;-72
2022/10/15 08:19:50;;;;;;;8.45;3.58;;;;;;;15.19;100.00;101075.28;1691566;84;21091;-72
2022/10/15 08:22:18;;;;;;;5.85;2.50;;;;;;;15.25;100.00;101076.48;1639383;86;21111;-69
2022/10/15 08:24:45;;;;;;;5.58;3.20;;;;;;;15.29;100.00;101069.11;1698826;84;21093;-72
2022/10/15 08:27:13;;;;;;;3.58;2.62;;;;;;;15.26;100.00;101074.07;1642964;86;21050;-72
2022/10/15 08:29:42;;;;;;;5.92;3.12;;;;;;;15.23;100.00;101073.05;1653587;86;21599;-70
2022/10/15 08:32:09;;;;;;;4.60;2.80;;;;;;;15.25;100.00;101066.94;1645547;86;21050;-70
2022/10/15 08:34:35;;;;;;;8.68;2.77;;;;;;;15.32;100.00;101071.49;1638241;86;21501;-69
2022/10/15 08:37:02;;;;;;;6.15;3.05;;;;;;;15.37;100.00;101070.97;1739653;82;21061;-69
2022/10/15 08:39:29;;;;;;;3.30;2.70;;;;;;;15.45;100.00;101071.44;1730760;82;21077;-68
2022/10/15 08:42:00;;;;;;;4.67;2.80;;;;;;;15.68;100.00;101074.20;1741390;81;21046;-69
2022/10/15 08:44:49;;;;;;;5.12;2.50;;;;;;;15.76;100.00;101066.02;1741645;82;21011;-69
2022/10/15 08:47:39;;;;;;;4.70;2.15;;;;;;;15.82;100.00;101067.17;1741745;82;20987;-69
2022/10/15 08:50:20;;;;;;;4.25;2.00;;;;;;;15.92;100.00;101068.63;1734076;83;21080;-69
2022/10/15 08:52:49;;;;;;;3.08;1.95;;;;;;;15.87;100.00;101068.84;1733909;83;21037;-69
2022/10/15 08:55:18;;;;;;;2.33;1.67;;;;;;;15.92;100.00;101063.17;1700545;84;21023;-69
2022/10/15 08:58:06;;;;;;;4.28;2.40;;;;;;;15.98;100.00;101062.12;1704377;84;21051;-70
2022/10/15 09:00:52;;;;;;;3.47;2.10;;;;;;;16.04;98.13;101064.11;1704117;84;21082;-69
2022/10/15 09:03:35;;;;;;;;;;;;;;;16.03;94.98;101054.24;1680204;84;21069;-70
2022/10/15 09:06:13;;;;;;;2.12;1.70;;;;;;;16.03;93.61;101051.52;1675987;86;20088;-69
2022/10/15 09:09:22;;;;;;;4.00;2.00;;;;;;;16.04;95.03;101052.70;1675684;86;21546;-71
2022/10/15 09:12:31;;;;;;;4.97;2.75;;;;;;;16.08;91.64;101046.36;1675842;86;21126;-69
2022/10/15 09:14:59;;;;;;;4.00;2.15;;;;;;;16.11;91.99;101054.16;1694637;84;21050;-69
2022/10/15 09:17:31;;;;;;;3.77;2.25;;;;;;;16.09;88.71;101051.61;1700170;84;21062;-68
2022/10/15 09:20:04;;;;;;;31.55;17.65;;;;;;;16.04;89.92;101048.61;1700299;84;21105;-69
2022/10/15 09:22:33;;;;;;;13.80;7.55;;;;;;;16.06;88.81;101035.62;1668913;85;21058;-70
2022/10/15 09:25:08;;;;;;;11.38;6.03;;;;;;;16.16;92.03;101038.62;1697366;84;21153;-70
2022/10/15 09:27:36;;;;;;;6.65;2.90;;;;;;;16.23;87.82;101036.32;1690497;84;21145;-70
2022/10/15 09:30:24;;;;;;;5.70;2.47;;;;;;;16.14;84.72;101042.36;1703529;84;21616;-70
2022/10/15 09:32:58;;;;;;;2.95;2.08;;;;;;;16.01;82.45;101038.05;1701424;84;21024;-81
2022/10/15 09:35:40;;;;;;;2.52;1.98;;;;;;;15.87;81.81;101034.23;1704558;84;21034;-79
2022/10/15 09:38:24;;;;;;;3.65;2.10;;;;;;;15.87;83.49;101036.95;1703824;83;21065;-78
2022/10/15 09:41:15;;;;;;;3.08;2.00;;;;;;;15.86;83.78;101033.05;1702005;84;21074;-79
2022/10/15 09:43:48;;;;;;;4.33;1.98;;;;;;;15.84;83.11;101028.30;1693172;84;21099;-77
2022/10/15 09:46:15;;;;;;;9.58;4.65;;;;;;;15.87;84.28;101030.66;1643820;87;21034;-79
2022/10/15 09:48:52;;;;;;;84.07;41.63;;;;;;;15.99;87.16;101037.39;1655066;85;21042;-74
2022/10/15 09:51:26;;;;;;;20.27;11.38;;;;;;;16.16;88.62;101032.63;1513213;93;21339;-74
2022/10/15 09:54:18;;;;;;;6.28;3.08;;;;;;;16.31;88.29;101021.25;1511639;95;21161;-82
2022/10/15 09:56:53;;;;;;;4.58;2.20;;;;;;;16.43;86.97;101027.61;1432285;96;21156;-71
2022/10/15 09:59:21;;;;;;;4.33;2.33;;;;;;;16.21;77.21;101028.84;1484447;94;21633;-72
2022/10/15 10:02:03;;;;;;;6.50;2.40;;;;;;;16.02;80.20;101032.91;1490156;94;21053;-80
2022/10/15 10:04:33;;;;;;;5.33;2.08;;;;;;;16.03;83.73;101029.16;1488828;94;21115;-81
2022/10/15 10:07:06;;;;;;;2.37;2.17;;;;;;;16.08;82.15;101024.02;1490804;94;21522;-80
2022/10/15 10:09:53;;;;;;;4.17;2.60;;;;;;;16.05;81.36;101027.63;1490588;96;21140;-80
2022/10/15 10:12:26;;;;;;;5.37;3.10;;;;;;;16.04;80.65;101021.83;1404879;100;21182;-81
2022/10/15 10:14:57;;;;;;;6.47;2.77;;;;;;;16.07;81.22;101014.64;1426581;101;21198;-79
2022/10/15 10:17:25;;;;;;;3.95;2.37;;;;;;;16.10;81.22;101017.02;1426580;101;21179;-78
2022/10/15 10:20:16;;;;;;;4.45;2.85;;;;;;;16.10;82.59;101019.22;1433854;99;21313;-69
2022/10/15 10:22:49;;;;;;;5.85;2.50;;;;;;;16.17;82.56;101013.05;1426586;99;21126;-72
2022/10/15 10:25:25;;;;;;;;;;;;;;;16.20;84.27;101016.25;1426673;101;21635;-71
2022/10/15 10:27:56;;;;;;;6.08;2.45;;;;;;;16.17;81.82;101012.52;1444692;99;20118;-72
2022/10/15 10:30:25;;;;;;;;;;;;;;;16.21;84.25;101019.81;1426696;101;21699;-70
2022/10/15 10:32:58;;;;;;;5.35;2.90;;;;;;;16.24;82.65;101008.02;1430845;99;20119;-69
2022/10/15 10:35:29;;;;;;;3.70;2.42;;;;;;;16.21;81.36;101004.81;1424960;99;21595;-68
2022/10/15 10:37:56;;;;;;;5.12;2.75;;;;;;;16.12;82.27;101007.60;1408967;100;21090;-70
2022/10/15 10:40:32;;;;;;;4.28;2.80;;;;;;;16.11;81.95;101004.56;1443780;93;21105;-70
2022/10/15 10:43:23;;;;;;;5.67;3.40;;;;;;;16.10;80.36;101008.83;1503127;95;21140;-70
2022/10/15 10:46:11;;;;;;;5.62;3.08;;;;;;;16.00;79.12;101012.31;1498213;95;21066;-70
2022/10/15 10:48:47;;;;;;;5.12;2.72;;;;;;;15.94;81.89;101013.37;1454542;97;21156;-70
2022/10/15 10:51:23;;;;;;;6.30;3.10;;;;;;;16.06;85.79;101006.11;1424571;99;21139;-70
2022/10/15 10:54:05;;;;;;;4.30;2.80;;;;;;;16.21;85.97;101011.11;1462384;97;21086;-81
2022/10/15 10:56:41;;;;;;;4.67;3.08;;;;;;;16.31;85.84;101008.13;1476194;97;21146;-79
2022/10/15 10:59:28;;;;;;;7.97;3.40;;;;;;;16.25;83.29;101003.39;1469174;97;21181;-78
2022/10/15 11:04:29;;;;;;;3.45;2.60;;;;;;;16.06;83.05;101015.17;1384088;104;21524;-79
2022/10/15 11:07:10;;;;;;;4.10;2.90;;;;;;;15.98;83.28;101008.93;1386210;102;21193;-79
2022/10/15 11:09:55;;;;;;;5.50;2.70;;;;;;;16.00;86.15;101006.34;1399823;102;21635;-78
2022/10/15 11:12:40;;;;;;;3.83;2.60;;;;;;;16.03;87.27;101007.87;1413255;101;21149;-78
2022/10/15 11:15:16;;;;;;;4.28;2.70;;;;;;;16.11;89.80;101002.33;1413673;101;21589;-79
2022/10/15 11:17:54;;;;;;;6.17;2.67;;;;;;;16.17;88.81;101002.97;1418051;100;21141;-79
2022/10/15 11:21:03;;;;;;;4.00;3.08;;;;;;;16.11;87.05;101000.47;1418682;101;21108;-74
2022/10/15 11:23:55;;;;;;;5.70;3.20;;;;;;;15.99;88.25;100995.11;1416413;100;21669;-74
2022/10/15 11:26:46;;;;;;;3.23;2.57;;;;;;;15.90;88.11;100993.45;1459282;97;21110;-77
2022/10/15 11:29:46;;;;;;;3.87;2.12;;;;;;;15.90;89.83;100990.73;1448756;99;21132;-78
2022/10/15 11:32:56;;;;;;;3.35;2.55;;;;;;;15.97;89.77;100990.36;1457595;98;21090;-78
2022/10/15 11:35:47;;;;;;;4.03;2.80;;;;;;;16.12;92.16;100990.39;1487647;96;21152;-80
2022/10/15 11:38:43;;;;;;;2.62;2.22;;;;;;;16.29;92.93;100994.67;1479410;96;21089;-77
2022/10/15 11:41:35;;;;;;;3.25;2.67;;;;;;;16.35;89.80;100995.80;1524343;91;21131;-79
2022/10/15 11:44:07;;;;;;;4.85;2.60;;;;;;;16.28;88.15;101001.67;1525276;94;21107;-79
2022/10/15 11:47:08;;;;;;;5.90;2.83;;;;;;;16.21;88.12;100998.83;1521767;94;21059;-79
2022/10/15 11:50:20;;;;;;;5.75;2.92;;;;;;;16.19;87.60;101002.26;1545908;93;21086;-78
2022/10/15 11:53:13;;;;;;;5.37;2.35;;;;;;;16.22;88.71;100995.57;1530368;93;21116;-80
2022/10/15 11:55:45;;;;;;;3.87;2.30;;;;;;;16.28;88.35;100986.66;1556729;91;21032;-80